Time;durP1;ratioP1;P1;durP2;ratioP2;P2;SDS_P1;SDS_P2;PMS_P1;PMS_P2;Temp;Humidity;BMP_temperature;BMP_pressure;BME280_temperature;BME280_humidity;BME280_pressure;Samples;Min_cycle;Max_cycle;Signal;HPM_P1;HPM_P2
2023/07/17 00:01:35;;;;;;;4.30;1.20;;;18.20;81.30;;;;;;5053946;28;20079;-77
2023/07/17 00:04:00;;;;;;;3.60;1.13;;;18.10;81.30;;;;;;5054703;28;20112;-78
2023/07/17 00:06:26;;;;;;;4.63;1.15;;;18.10;81.70;;;;;;5053477;28;20039;-86
2023/07/17 00:08:52;;;;;;;3.67;1.05;;;18.10;82.10;;;;;;5054289;28;20420;-83
2023/07/17 00:11:17;;;;;;;6.78;1.65;;;18.10;82.10;;;;;;5054617;28;20056;-83
2023/07/17 00:13:43;;;;;;;7.63;1.60;;;18.00;82.30;;;;;;5054728;28;20029;-83
2023/07/17 00:16:08;;;;;;;5.85;1.45;;;18.10;82.80;;;;;;5054873;28;20025;-83
2023/07/17 00:18:34;;;;;;;3.42;1.13;;;18.10;82.90;;;;;;5053350;28;20033;-84
2023/07/17 00:21:04;;;;;;;4.25;1.48;;;18.00;83.10;;;;;;5053231;28;20040;-83
2023/07/17 00:23:30;;;;;;;5.28;1.95;;;18.00;83.30;;;;;;5053273;28;20041;-83
2023/07/17 00:25:55;;;;;;;4.53;1.60;;;17.90;84.00;;;;;;5053123;28;20029;-83
2023/07/17 00:28:21;;;;;;;3.70;1.30;;;17.90;83.40;;;;;;5054355;28;20029;-83
2023/07/17 00:30:47;;;;;;;3.85;1.38;;;17.90;83.60;;;;;;5053038;28;20032;-77
2023/07/17 00:33:13;;;;;;;3.53;1.20;;;17.90;83.80;;;;;;5054204;28;20110;-77
2023/07/17 00:35:38;;;;;;;5.85;1.80;;;17.90;84.00;;;;;;5054102;28;20025;-77
2023/07/17 00:38:04;;;;;;;6.13;1.60;;;17.90;84.40;;;;;;5053350;28;20059;-77
2023/07/17 00:40:30;;;;;;;3.88;1.42;;;17.90;84.30;;;;;;5052892;28;20028;-77
2023/07/17 00:43:00;;;;;;;5.57;1.48;;;17.90;84.40;;;;;;5049690;28;20420;-77
2023/07/17 00:45:30;;;;;;;4.25;1.30;;;17.80;84.60;;;;;;5049314;28;20071;-77
2023/07/17 00:47:57;;;;;;;5.43;1.60;;;17.80;84.50;;;;;;5053851;28;20362;-77
2023/07/17 00:50:22;;;;;;;4.45;1.60;;;17.70;84.60;;;;;;5052547;28;20071;-77
2023/07/17 00:52:49;;;;;;;4.68;1.63;;;17.70;84.80;;;;;;5050860;28;20385;-77
2023/07/17 00:55:15;;;;;;;5.43;1.88;;;17.70;84.90;;;;;;5052379;28;20036;-77
2023/07/17 00:57:41;;;;;;;6.45;1.80;;;17.60;85.00;;;;;;5053169;28;20055;-83
2023/07/17 01:00:08;;;;;;;3.97;1.50;;;17.60;85.40;;;;;;5053743;28;20104;-85
2023/07/17 01:02:37;;;;;;;5.10;1.98;;;17.60;85.90;;;;;;5036393;28;20542;-83
2023/07/17 01:05:03;;;;;;;6.18;1.85;;;17.50;85.90;;;;;;5052345;28;20036;-77
2023/07/17 01:07:28;;;;;;;5.03;1.70;;;17.50;85.80;;;;;;5053933;28;20029;-76
2023/07/17 01:09:54;;;;;;;5.38;1.90;;;17.50;86.20;;;;;;5052058;28;20135;-76
2023/07/17 01:12:20;;;;;;;5.10;1.58;;;17.50;86.50;;;;;;5052393;28;20029;-77
2023/07/17 01:14:45;;;;;;;4.93;1.63;;;17.40;86.90;;;;;;5035877;28;20110;-77
2023/07/17 01:17:11;;;;;;;6.03;1.83;;;17.40;86.80;;;;;;5035511;28;20381;-76
2023/07/17 01:19:36;;;;;;;6.03;1.55;;;17.30;86.90;;;;;;5053300;28;20044;-85
2023/07/17 01:22:07;;;;;;;5.63;2.03;;;17.30;87.00;;;;;;5052336;28;20036;-83
2023/07/17 01:24:33;;;;;;;4.95;1.80;;;17.30;87.60;;;;;;5052011;28;20116;-84
2023/07/17 01:26:58;;;;;;;4.45;1.92;;;17.30;87.70;;;;;;5053231;28;20059;-78
2023/07/17 01:29:24;;;;;;;6.93;2.15;;;17.30;87.90;;;;;;5052321;28;20021;-77
2023/07/17 01:31:50;;;;;;;7.35;2.17;;;17.20;88.80;;;;;;5035432;28;20557;-77
2023/07/17 01:34:15;;;;;;;4.97;2.00;;;17.30;88.10;;;;;;5019043;28;20036;-77
2023/07/17 01:36:41;;;;;;;5.53;2.35;;;17.20;88.40;;;;;;5053177;28;20025;-77
2023/07/17 01:39:06;;;;;;;7.65;2.13;;;17.20;88.40;;;;;;5053126;28;20035;-77
2023/07/17 01:41:32;;;;;;;5.00;1.98;;;17.20;88.60;;;;;;5035659;28;20128;-77
2023/07/17 01:43:58;;;;;;;6.82;2.13;;;17.20;88.90;;;;;;5052974;28;20084;-77
2023/07/17 01:46:23;;;;;;;10.65;2.72;;;17.10;88.80;;;;;;5035121;28;20501;-77
2023/07/17 01:48:49;;;;;;;5.88;2.30;;;17.10;89.20;;;;;;5051975;28;20481;-85
2023/07/17 01:51:15;;;;;;;5.85;2.00;;;17.00;89.30;;;;;;5051977;28;20041;-78
2023/07/17 01:53:40;;;;;;;4.97;2.35;;;17.00;89.50;;;;;;5051698;28;20029;-78
2023/07/17 01:56:06;;;;;;;4.72;1.88;;;16.90;89.80;;;;;;5052011;28;20025;-78
2023/07/17 01:58:31;;;;;;;7.00;2.28;;;16.90;90.00;;;;;;5051660;28;20498;-79
2023/07/17 02:00:57;;;;;;;7.70;2.42;;;16.90;90.10;;;;;;5051598;28;20492;-78
2023/07/17 02:03:23;;;;;;;6.05;2.30;;;16.80;90.30;;;;;;5018788;28;20154;-78
2023/07/17 02:05:52;;;;;;;5.53;2.20;;;16.80;90.30;;;;;;5051753;28;20391;-78
2023/07/17 02:08:18;;;;;;;8.55;2.50;;;16.70;90.30;;;;;;5052148;28;20021;-83
2023/07/17 02:10:44;;;;;;;6.07;2.30;;;16.70;90.60;;;;;;5056914;28;20055;-77
2023/07/17 02:13:10;;;;;;;5.57;1.92;;;16.70;90.60;;;;;;5055791;28;20024;-83
2023/07/17 02:15:36;;;;;;;5.93;2.22;;;16.60;90.60;;;;;;5057079;28;20033;-85
2023/07/17 02:18:02;;;;;;;4.85;1.83;;;16.60;90.90;;;;;;5038920;28;20025;-83
2023/07/17 02:20:28;;;;;;;7.30;2.05;;;16.60;90.90;;;;;;5055667;28;20025;-78
2023/07/17 02:22:53;;;;;;;9.13;2.97;;;16.60;91.00;;;;;;5055700;28;20033;-78
2023/07/17 02:25:19;;;;;;;7.57;2.45;;;16.50;91.00;;;;;;5038886;28;20091;-78
2023/07/17 02:27:45;;;;;;;8.45;2.58;;;16.50;91.00;;;;;;5055424;28;20546;-78
2023/07/17 02:30:11;;;;;;;7.45;2.40;;;16.50;91.20;;;;;;5038855;28;20025;-84
2023/07/17 02:32:36;;;;;;;5.88;2.20;;;16.40;91.20;;;;;;5056576;28;20029;-84
2023/07/17 02:35:02;;;;;;;7.30;2.17;;;16.40;91.20;;;;;;5055170;28;20507;-85
2023/07/17 02:37:28;;;;;;;6.18;1.92;;;16.40;91.30;;;;;;5055136;28;20392;-84
2023/07/17 02:39:54;;;;;;;5.25;2.00;;;16.30;91.40;;;;;;5056710;28;20039;-84
2023/07/17 02:42:20;;;;;;;6.80;2.22;;;16.30;91.40;;;;;;5056510;28;20123;-78
2023/07/17 02:44:46;;;;;;;8.63;2.25;;;16.30;91.50;;;;;;5055038;28;20481;-77
2023/07/17 02:47:12;;;;;;;5.57;2.53;;;16.30;91.60;;;;;;5055200;28;20028;-78
2023/07/17 02:49:38;;;;;;;6.65;2.70;;;16.30;91.70;;;;;;5055073;28;20021;-84
2023/07/17 02:52:07;;;;;;;6.53;2.45;;;16.20;91.70;;;;;;5055092;28;20077;-77
2023/07/17 02:54:36;;;;;;;6.40;2.13;;;16.20;91.80;;;;;;5054933;28;20211;-77
2023/07/17 02:57:02;;;;;;;5.68;2.53;;;16.10;91.80;;;;;;5054980;28;20025;-77
2023/07/17 02:59:27;;;;;;;6.45;2.65;;;16.20;91.90;;;;;;5038185;28;20114;-77
2023/07/17 03:01:53;;;;;;;6.72;2.33;;;16.10;91.90;;;;;;5038146;28;20115;-78
2023/07/17 03:04:18;;;;;;;6.25;2.58;;;16.10;92.10;;;;;;5038072;28;20033;-84
2023/07/17 03:06:44;;;;;;;7.72;3.05;;;16.10;92.10;;;;;;5055930;28;20025;-77
2023/07/17 03:09:10;;;;;;;7.47;2.28;;;16.00;92.10;;;;;;5037659;28;20045;-78
2023/07/17 03:11:35;;;;;;;4.57;1.80;;;16.00;92.20;;;;;;5055788;28;20112;-83
2023/07/17 03:14:01;;;;;;;8.68;3.03;;;16.00;92.20;;;;;;5054691;28;20033;-84
2023/07/17 03:16:26;;;;;;;5.85;2.65;;;16.00;92.70;;;;;;5055723;28;20423;-84
2023/07/17 03:18:52;;;;;;;5.97;2.65;;;15.90;92.50;;;;;;5056137;28;20585;-77
2023/07/17 03:21:19;;;;;;;6.82;2.58;;;15.90;92.90;;;;;;5021140;28;20021;-77
2023/07/17 03:23:44;;;;;;;6.03;2.63;;;15.90;92.70;;;;;;5055880;28;20413;-77
2023/07/17 03:26:10;;;;;;;7.50;2.28;;;15.90;92.80;;;;;;5037972;28;20029;-85
2023/07/17 03:28:37;;;;;;;7.00;2.45;;;15.80;92.90;;;;;;5054387;28;20033;-78
2023/07/17 03:31:02;;;;;;;6.30;2.28;;;15.80;93.00;;;;;;5021539;28;20051;-77
2023/07/17 03:33:28;;;;;;;6.97;2.25;;;15.70;93.20;;;;;;5054229;28;20052;-78
2023/07/17 03:35:53;;;;;;;5.38;1.83;;;15.80;93.30;;;;;;5055564;28;20032;-84
2023/07/17 03:38:19;;;;;;;4.47;1.90;;;15.80;93.30;;;;;;5054221;28;20029;-84
2023/07/17 03:40:45;;;;;;;5.57;2.10;;;15.70;93.30;;;;;;5055426;28;20037;-84
2023/07/17 03:43:10;;;;;;;7.28;1.90;;;15.70;93.30;;;;;;5037454;28;20543;-85
2023/07/17 03:45:36;;;;;;;8.57;1.98;;;15.70;93.40;;;;;;5053723;28;20025;-83
2023/07/17 03:48:01;;;;;;;9.10;2.50;;;15.70;93.70;;;;;;5037258;28;20420;-77
2023/07/17 03:50:27;;;;;;;7.90;2.67;;;15.70;93.60;;;;;;5054997;28;20025;-77
2023/07/17 03:52:53;;;;;;;8.88;2.42;;;15.60;93.70;;;;;;5053879;28;20021;-78
2023/07/17 03:55:19;;;;;;;7.40;2.15;;;15.60;93.80;;;;;;5037090;28;20122;-78
2023/07/17 03:57:44;;;;;;;6.00;2.22;;;15.60;93.80;;;;;;5054908;28;20090;-85
2023/07/17 04:00:13;;;;;;;7.78;2.33;;;15.60;93.90;;;;;;5055213;28;20462;-84
2023/07/17 04:02:41;;;;;;;6.70;2.20;;;15.60;94.00;;;;;;5055157;28;20029;-84
2023/07/17 04:05:07;;;;;;;11.38;2.88;;;15.50;94.00;;;;;;5054763;28;20025;-85
2023/07/17 04:07:32;;;;;;;8.10;2.72;;;15.50;94.00;;;;;;5037101;28;20500;-85
2023/07/17 04:09:58;;;;;;;7.68;2.45;;;15.50;94.10;;;;;;5054543;28;20408;-77
2023/07/17 04:12:24;;;;;;;8.30;2.17;;;15.50;94.20;;;;;;5053460;28;20572;-77
2023/07/17 04:14:50;;;;;;;8.10;3.22;;;15.50;94.30;;;;;;5054718;28;20025;-84
2023/07/17 04:17:15;;;;;;;7.35;2.55;;;15.50;94.60;;;;;;5053252;28;20052;-84
2023/07/17 04:19:41;;;;;;;7.45;1.83;;;15.50;94.80;;;;;;5054595;28;20120;-84
2023/07/17 04:22:06;;;;;;;6.13;1.85;;;15.50;94.60;;;;;;5052399;28;20488;-77
2023/07/17 04:24:33;;;;;;;6.20;2.15;;;15.50;94.70;;;;;;5052979;28;20076;-77
2023/07/17 04:26:59;;;;;;;6.75;2.45;;;15.50;94.90;;;;;;5052391;28;20017;-76
2023/07/17 04:29:25;;;;;;;7.78;2.38;;;15.50;95.00;;;;;;5032982;28;20029;-82
2023/07/17 04:31:50;;;;;;;10.52;2.47;;;15.50;95.10;;;;;;5030624;28;20163;-83
2023/07/17 04:34:16;;;;;;;7.68;3.13;;;15.50;95.10;;;;;;5032468;28;20045;-76
2023/07/17 04:36:42;;;;;;;6.97;2.35;;;15.50;95.30;;;;;;5033269;28;20398;-76
2023/07/17 04:39:07;;;;;;;6.32;2.35;;;15.50;95.40;;;;;;5034318;28;20034;-82
2023/07/17 04:41:33;;;;;;;6.75;2.72;;;15.50;95.40;;;;;;5034274;28;20045;-83
2023/07/17 04:43:59;;;;;;;9.63;2.92;;;15.50;95.60;;;;;;5034205;28;20026;-83
2023/07/17 04:46:25;;;;;;;5.93;2.20;;;15.50;95.50;;;;;;5033121;28;20500;-83
2023/07/17 04:48:51;;;;;;;6.70;2.67;;;15.60;95.50;;;;;;5034379;28;20047;-82
2023/07/17 04:51:16;;;;;;;9.15;3.03;;;15.60;95.50;;;;;;5033009;28;20130;-83
2023/07/17 04:53:42;;;;;;;10.70;2.40;;;15.60;95.80;;;;;;5034314;28;20393;-82
2023/07/17 04:56:08;;;;;;;8.65;2.85;;;15.60;95.80;;;;;;5016453;28;20036;-77
2023/07/17 04:58:33;;;;;;;7.07;2.53;;;15.60;96.20;;;;;;5032866;28;20033;-84
2023/07/17 05:01:00;;;;;;;11.02;2.97;;;15.60;95.80;;;;;;5034051;28;20029;-83
2023/07/17 05:03:27;;;;;;;9.55;2.60;;;15.60;96.00;;;;;;5032747;28;20034;-77
2023/07/17 05:05:53;;;;;;;11.77;2.58;;;15.70;96.00;;;;;;5032687;28;20089;-78
2023/07/17 05:08:19;;;;;;;10.02;3.63;;;15.70;96.10;;;;;;5032473;28;20033;-77
2023/07/17 05:10:55;;;;;;;13.70;3.58;;;15.70;96.20;;;;;;5032273;28;20053;-83
2023/07/17 05:13:21;;;;;;;8.23;2.97;;;15.70;96.10;;;;;;5033722;28;20108;-77
2023/07/17 05:15:46;;;;;;;11.30;3.75;;;15.70;96.10;;;;;;5032430;28;20137;-84
2023/07/17 05:18:12;;;;;;;10.65;3.90;;;15.70;96.10;;;;;;5033635;28;20034;-83
2023/07/17 05:20:37;;;;;;;13.40;4.25;;;15.80;96.20;;;;;;5032365;28;20443;-77
2023/07/17 05:23:03;;;;;;;10.95;4.10;;;15.80;96.30;;;;;;5032408;28;20084;-84
2023/07/17 05:25:29;;;;;;;8.80;3.83;;;15.80;96.30;;;;;;5046149;28;20481;-77
2023/07/17 05:27:54;;;;;;;13.27;3.85;;;15.80;96.30;;;;;;5035724;28;20044;-78
2023/07/17 05:30:20;;;;;;;7.38;3.60;;;15.80;96.20;;;;;;5035900;28;20021;-77
2023/07/17 05:32:45;;;;;;;11.30;4.10;;;15.80;96.30;;;;;;5052151;28;20126;-77
2023/07/17 05:35:11;;;;;;;23.60;4.63;;;15.80;96.20;;;;;;5052216;28;20029;-77
2023/07/17 05:37:37;;;;;;;12.93;4.32;;;15.90;96.20;;;;;;5053192;28;20053;-78
2023/07/17 05:40:04;;;;;;;10.98;3.67;;;15.90;96.20;;;;;;5052033;28;20334;-83
2023/07/17 05:42:29;;;;;;;12.50;3.70;;;15.90;96.10;;;;;;5050828;28;20036;-84
2023/07/17 05:44:55;;;;;;;12.15;4.95;;;15.90;96.00;;;;;;5042254;28;20033;-84
2023/07/17 05:47:20;;;;;;;9.55;3.80;;;16.00;96.00;;;;;;5033175;28;20064;-84
2023/07/17 05:49:46;;;;;;;11.40;4.80;;;16.00;96.00;;;;;;5032137;28;20030;-84
2023/07/17 05:52:12;;;;;;;11.65;4.85;;;16.00;95.90;;;;;;5015236;28;20041;-79
2023/07/17 05:54:37;;;;;;;11.23;4.38;;;16.00;95.80;;;;;;4999093;28;20029;-78
2023/07/17 05:57:03;;;;;;;12.32;4.93;;;16.10;95.80;;;;;;5015444;28;20083;-78
2023/07/17 05:59:29;;;;;;;12.07;5.03;;;16.10;95.80;;;;;;5031865;28;20061;-77
2023/07/17 06:01:54;;;;;;;12.35;5.13;;;16.10;95.70;;;;;;5031818;28;20029;-78
2023/07/17 06:04:20;;;;;;;13.18;5.65;;;16.10;95.70;;;;;;5034499;28;20025;-85
2023/07/17 06:06:46;;;;;;;13.05;5.18;;;16.20;95.70;;;;;;5051887;28;20044;-84
2023/07/17 06:09:11;;;;;;;12.60;5.63;;;16.20;95.50;;;;;;5053000;28;20485;-85
2023/07/17 06:11:37;;;;;;;15.18;6.70;;;16.30;95.50;;;;;;5051337;28;20049;-77
2023/07/17 06:14:02;;;;;;;17.33;6.80;;;16.30;95.40;;;;;;5035056;28;20421;-77
2023/07/17 06:16:28;;;;;;;12.80;6.88;;;16.30;95.40;;;;;;5051691;28;20025;-84
2023/07/17 06:18:54;;;;;;;14.95;6.50;;;16.40;95.20;;;;;;5051748;28;20037;-77
2023/07/17 06:21:19;;;;;;;14.63;6.45;;;16.40;95.20;;;;;;5051590;28;20033;-83
2023/07/17 06:23:45;;;;;;;21.70;6.40;;;16.40;95.20;;;;;;5052699;28;20123;-85
2023/07/17 06:26:10;;;;;;;15.80;6.15;;;16.40;95.20;;;;;;5051556;28;20461;-77
2023/07/17 06:28:36;;;;;;;15.93;6.43;;;16.50;95.10;;;;;;5052932;28;20029;-77
2023/07/17 06:31:02;;;;;;;15.45;7.70;;;16.50;94.90;;;;;;5018544;28;20021;-78
2023/07/17 06:33:27;;;;;;;14.73;7.13;;;16.60;94.90;;;;;;5035272;28;20100;-83
2023/07/17 06:35:53;;;;;;;17.33;7.63;;;16.60;94.80;;;;;;5035108;28;20037;-77
2023/07/17 06:38:18;;;;;;;17.45;7.90;;;16.70;94.50;;;;;;5051438;28;20108;-84
2023/07/17 06:40:44;;;;;;;16.00;7.13;;;16.70;94.40;;;;;;5051798;28;20037;-85
2023/07/17 06:43:10;;;;;;;11.95;6.13;;;16.70;94.40;;;;;;5051425;28;20048;-77
2023/07/17 06:45:35;;;;;;;19.50;7.00;;;16.80;94.30;;;;;;5051576;28;20469;-84
2023/07/17 06:48:01;;;;;;;15.25;6.20;;;16.80;94.30;;;;;;5051630;28;20040;-76
2023/07/17 06:50:26;;;;;;;15.13;6.55;;;16.80;94.30;;;;;;5050745;28;20482;-76
2023/07/17 06:52:52;;;;;;;12.52;5.57;;;16.90;94.30;;;;;;5047637;28;20036;-77
2023/07/17 06:55:18;;;;;;;15.98;6.47;;;17.00;94.20;;;;;;5044882;28;20036;-82
2023/07/17 06:57:43;;;;;;;14.77;5.72;;;17.10;94.10;;;;;;5040991;28;20026;-77
2023/07/17 07:00:09;;;;;;;13.07;6.60;;;17.20;94.00;;;;;;5018440;28;20030;-84
2023/07/17 07:02:35;;;;;;;18.58;6.68;;;17.40;93.80;;;;;;5035992;28;20053;-77
2023/07/17 07:05:01;;;;;;;14.02;6.05;;;17.50;93.80;;;;;;5035991;28;20107;-85
2023/07/17 07:07:27;;;;;;;11.63;6.03;;;17.60;93.60;;;;;;5034849;28;20041;-78
2023/07/17 07:09:52;;;;;;;14.13;5.68;;;17.70;93.10;;;;;;5034772;28;20045;-84
2023/07/17 07:12:18;;;;;;;16.80;6.10;;;17.80;92.80;;;;;;5018275;28;20078;-78
2023/07/17 07:14:44;;;;;;;16.35;6.03;;;17.80;92.40;;;;;;5001956;28;20080;-78
2023/07/17 07:17:09;;;;;;;16.27;6.47;;;17.90;92.30;;;;;;5034550;28;20033;-85
2023/07/17 07:19:35;;;;;;;16.58;6.63;;;18.00;92.10;;;;;;5034401;28;20021;-78
2023/07/17 07:22:01;;;;;;;16.38;6.13;;;18.10;91.80;;;;;;5035542;28;20052;-85
2023/07/17 07:24:27;;;;;;;16.17;6.18;;;18.10;91.70;;;;;;5035610;28;20049;-79
2023/07/17 07:26:52;;;;;;;14.40;6.25;;;18.10;91.50;;;;;;5034552;28;20060;-85
2023/07/17 07:29:18;;;;;;;15.45;6.47;;;18.10;91.00;;;;;;5034372;28;20032;-78
2023/07/17 07:31:43;;;;;;;15.60;5.85;;;18.10;91.20;;;;;;5017956;28;20029;-86
2023/07/17 07:34:09;;;;;;;13.93;6.60;;;18.20;91.20;;;;;;5035647;28;20034;-84
2023/07/17 07:36:35;;;;;;;12.85;5.05;;;18.20;90.80;;;;;;5035416;28;20042;-84
2023/07/17 07:39:00;;;;;;;16.10;6.60;;;18.20;90.40;;;;;;5034274;28;20040;-85
2023/07/17 07:41:26;;;;;;;14.57;6.15;;;18.20;90.10;;;;;;5017539;28;20120;-78
2023/07/17 07:43:52;;;;;;;15.90;5.40;;;18.20;90.00;;;;;;5017563;28;20033;-78
2023/07/17 07:46:17;;;;;;;11.60;5.47;;;18.20;90.10;;;;;;5035311;28;20033;-78
2023/07/17 07:48:43;;;;;;;14.63;5.65;;;18.30;90.10;;;;;;5034008;28;20030;-78
2023/07/17 07:51:08;;;;;;;14.43;5.57;;;18.40;90.20;;;;;;5033974;28;20068;-77
2023/07/17 07:53:34;;;;;;;12.68;4.72;;;18.40;88.80;;;;;;5017406;28;20065;-83
2023/07/17 07:56:01;;;;;;;10.07;4.57;;;18.50;88.80;;;;;;5001165;28;20025;-78
2023/07/17 07:58:26;;;;;;;14.48;5.15;;;18.50;88.10;;;;;;5017416;28;20116;-78
2023/07/17 08:00:53;;;;;;;10.40;4.55;;;18.50;86.70;;;;;;5033811;28;20116;-83
2023/07/17 08:03:18;;;;;;;13.68;4.82;;;18.50;86.60;;;;;;5045249;28;20033;-84
2023/07/17 08:05:44;;;;;;;13.57;4.95;;;18.50;85.90;;;;;;5052835;28;20095;-79
2023/07/17 08:08:10;;;;;;;10.45;4.38;;;18.50;86.30;;;;;;5027497;28;20075;-84
2023/07/17 08:10:38;;;;;;;12.90;4.38;;;18.60;86.30;;;;;;5040542;28;20065;-78
2023/07/17 08:13:04;;;;;;;11.10;4.22;;;18.70;85.70;;;;;;5044083;28;20116;-77
2023/07/17 08:15:31;;;;;;;10.27;4.15;;;18.80;85.60;;;;;;5042721;28;20089;-78
2023/07/17 08:17:56;;;;;;;11.25;4.93;;;18.80;85.30;;;;;;5042397;28;20044;-78
2023/07/17 08:20:22;;;;;;;10.13;3.72;;;18.90;84.60;;;;;;5036566;28;20037;-79
2023/07/17 08:22:50;;;;;;;10.32;3.80;;;19.00;84.00;;;;;;5016669;28;20029;-78
2023/07/17 08:25:15;;;;;;;10.32;4.13;;;18.90;82.60;;;;;;5034208;28;20038;-79
2023/07/17 08:27:41;;;;;;;9.43;4.03;;;19.00;82.50;;;;;;5045719;28;20111;-86
2023/07/17 08:30:07;;;;;;;10.23;4.03;;;19.00;82.80;;;;;;5052580;28;20469;-78
2023/07/17 08:32:33;;;;;;;9.57;3.53;;;19.10;82.50;;;;;;5029067;28;20474;-86
2023/07/17 08:34:58;;;;;;;15.45;4.07;;;19.20;83.30;;;;;;5041631;28;20040;-85
2023/07/17 08:37:24;;;;;;;10.65;4.07;;;19.20;82.40;;;;;;5048501;28;20033;-84
2023/07/17 08:39:49;;;;;;;11.98;3.83;;;19.20;82.70;;;;;;5036469;28;20036;-84
2023/07/17 08:42:15;;;;;;;10.48;3.92;;;19.20;82.80;;;;;;5035828;28;20040;-79
2023/07/17 08:44:41;;;;;;;9.18;3.72;;;19.30;83.00;;;;;;5042519;28;20172;-78
2023/07/17 08:47:08;;;;;;;6.95;3.20;;;19.30;82.10;;;;;;5000130;28;20048;-78
2023/07/17 08:49:35;;;;;;;11.48;3.35;;;19.40;81.80;;;;;;5032934;28;20120;-85
2023/07/17 08:52:03;;;;;;;10.88;3.70;;;19.50;81.50;;;;;;5032742;28;20025;-79
2023/07/17 08:54:28;;;;;;;11.25;3.38;;;19.50;81.10;;;;;;5043951;28;20025;-79
2023/07/17 08:56:55;;;;;;;8.63;3.67;;;19.60;81.20;;;;;;5035884;28;20044;-85
2023/07/17 08:59:21;;;;;;;10.00;3.40;;;19.60;81.20;;;;;;5053962;28;20044;-85
2023/07/17 09:01:49;;;;;;;9.32;3.45;;;19.70;80.10;;;;;;5032758;28;20022;-87
2023/07/17 09:04:16;;;;;;;11.27;3.10;;;19.70;80.20;;;;;;5053755;28;20121;-87
2023/07/17 09:06:41;;;;;;;8.55;3.00;;;19.80;79.60;;;;;;5047235;28;20116;-77
2023/07/17 09:09:09;;;;;;;9.75;3.40;;;19.90;79.10;;;;;;5041013;28;20517;-86
2023/07/17 09:11:35;;;;;;;6.53;2.30;;;20.00;78.80;;;;;;5032538;28;20123;-79
2023/07/17 09:14:01;;;;;;;11.30;3.00;;;20.10;78.30;;;;;;5032536;28;20112;-79
2023/07/17 09:16:26;;;;;;;9.23;3.00;;;20.20;77.80;;;;;;5015946;28;20123;-78
2023/07/17 09:18:53;;;;;;;9.88;2.88;;;20.20;77.30;;;;;;5015551;28;20116;-79
2023/07/17 09:21:24;;;;;;;6.97;3.30;;;20.20;76.60;;;;;;5032344;28;20481;-87
2023/07/17 09:23:55;;;;;;;7.95;2.70;;;20.10;77.20;;;;;;5033699;28;20029;-87
2023/07/17 09:26:22;;;;;;;8.10;2.47;;;20.10;76.30;;;;;;5033695;28;20028;-78
2023/07/17 09:28:49;;;;;;;8.77;2.72;;;20.10;76.70;;;;;;5032282;28;20029;-79
2023/07/17 09:31:29;;;;;;;6.65;1.63;;;20.10;76.30;;;;;;5032239;28;20025;-79
2023/07/17 09:33:57;;;;;;;6.75;2.17;;;20.10;75.50;;;;;;5033343;28;20029;-86
2023/07/17 09:36:23;;;;;;;8.95;2.53;;;20.20;75.10;;;;;;5032470;28;20541;-77
2023/07/17 09:38:54;;;;;;;9.10;2.85;;;20.20;74.20;;;;;;5042713;28;20033;-76
2023/07/17 09:41:24;;;;;;;6.47;1.95;;;20.40;73.70;;;;;;5053174;28;20074;-76
2023/07/17 09:44:00;;;;;;;6.55;2.65;;;20.50;73.80;;;;;;5051972;28;20104;-77
2023/07/17 09:46:30;;;;;;;7.40;2.20;;;20.50;73.20;;;;;;5053274;28;20043;-77
2023/07/17 09:48:57;;;;;;;5.28;1.98;;;20.60;72.60;;;;;;5053263;28;20021;-76
2023/07/17 09:51:23;;;;;;;7.00;1.98;;;20.60;71.70;;;;;;5051976;28;20021;-76
2023/07/17 09:53:49;;;;;;;10.23;2.65;;;20.70;71.00;;;;;;5035273;28;20116;-77
2023/07/17 09:56:17;;;;;;;8.15;2.40;;;20.70;71.00;;;;;;5052025;28;20033;-77
2023/07/17 09:58:47;;;;;;;8.02;1.90;;;20.70;71.30;;;;;;5042704;28;20385;-77
2023/07/17 10:01:18;;;;;;;8.90;1.90;;;20.70;71.30;;;;;;5040407;28;20382;-87
2023/07/17 10:03:48;;;;;;;6.13;1.70;;;20.70;71.70;;;;;;5038834;28;20030;-88
2023/07/17 10:06:16;;;;;;;6.53;2.17;;;20.70;71.60;;;;;;5041530;28;20018;-76
2023/07/17 10:08:49;;;;;;;7.10;2.15;;;20.80;71.70;;;;;;5015378;28;20037;-77
2023/07/17 10:11:16;;;;;;;8.02;2.55;;;20.80;71.60;;;;;;5031698;28;20124;-77
2023/07/17 10:13:47;;;;;;;6.70;2.15;;;20.80;71.30;;;;;;5032963;28;20026;-84
2023/07/17 10:16:19;;;;;;;6.20;2.00;;;20.80;70.40;;;;;;5031782;28;20055;-87
2023/07/17 10:18:54;;;;;;;5.50;2.25;;;20.80;71.10;;;;;;5031995;28;20022;-75
2023/07/17 10:21:21;;;;;;;9.43;2.28;;;21.00;71.30;;;;;;5017698;28;20502;-73
2023/07/17 10:23:48;;;;;;;8.93;2.13;;;21.10;71.10;;;;;;5031499;28;20462;-75
2023/07/17 10:26:19;;;;;;;8.10;2.55;;;21.20;70.30;;;;;;5031776;28;20048;-75
2023/07/17 10:28:49;;;;;;;8.60;2.38;;;21.20;70.20;;;;;;5037838;28;20548;-76
2023/07/17 10:31:25;;;;;;;9.02;2.25;;;21.30;70.10;;;;;;5035476;28;20075;-76
2023/07/17 10:33:53;;;;;;;6.95;2.38;;;21.50;69.90;;;;;;5047852;28;20087;-74
2023/07/17 10:36:39;;;;;;;11.45;2.28;;;21.70;69.00;;;;;;5043715;28;20030;-75
2023/07/17 10:39:08;;;;;;;8.38;2.63;;;21.70;67.80;;;;;;5052739;28;20021;-76
2023/07/17 10:41:37;;;;;;;5.93;1.05;;;21.60;66.70;;;;;;5044947;28;20018;-74
2023/07/17 10:44:06;;;;;;;2.85;0.70;;;21.50;64.90;;;;;;5028314;28;20029;-75
2023/07/17 10:46:32;;;;;;;3.13;0.70;;;21.30;65.80;;;;;;5044102;28;20373;-76
2023/07/17 10:49:24;;;;;;;3.45;0.65;;;21.00;66.70;;;;;;5044876;28;20014;-75
2023/07/17 10:51:51;;;;;;;3.67;0.82;;;20.60;69.10;;;;;;5052204;28;20033;-75
2023/07/17 10:54:18;;;;;;;3.58;0.63;;;20.40;69.50;;;;;;5043353;28;20108;-75
2023/07/17 10:56:48;;;;;;;3.13;0.85;;;20.20;70.60;;;;;;5028069;28;20032;-76
2023/07/17 10:59:16;;;;;;;2.28;0.77;;;20.10;71.30;;;;;;5045235;28;20485;-76
2023/07/17 11:01:42;;;;;;;2.42;0.77;;;20.50;72.10;;;;;;5043681;28;20167;-76
2023/07/17 11:04:08;;;;;;;2.60;0.60;;;21.00;72.90;;;;;;5048743;28;20523;-76
2023/07/17 11:06:34;;;;;;;2.00;0.50;;;21.80;72.50;;;;;;5054688;28;20025;-77
2023/07/17 11:09:01;;;;;;;2.22;0.55;;;22.40;72.10;;;;;;5038033;28;20049;-77
2023/07/17 11:11:27;;;;;;;2.50;0.63;;;22.60;71.60;;;;;;5037752;28;20563;-76
2023/07/17 11:13:53;;;;;;;2.00;0.57;;;22.80;71.00;;;;;;5055661;28;20385;-77
2023/07/17 11:16:20;;;;;;;2.40;0.70;;;22.90;70.60;;;;;;5048343;28;20389;-82
2023/07/17 11:18:48;;;;;;;2.78;0.70;;;23.00;70.20;;;;;;5047323;28;20482;-82
2023/07/17 11:21:22;;;;;;;2.80;0.55;;;23.00;69.90;;;;;;5036461;28;20080;-77
2023/07/17 11:23:49;;;;;;;1.60;0.50;;;23.10;69.70;;;;;;5037242;28;20109;-76
2023/07/17 11:26:17;;;;;;;1.90;0.50;;;23.20;69.50;;;;;;5042342;28;20041;-77
2023/07/17 11:28:43;;;;;;;3.63;0.93;;;23.30;69.10;;;;;;5034370;28;20022;-77
2023/07/17 11:31:24;;;;;;;3.75;0.93;;;23.40;68.80;;;;;;5031587;28;20487;-77
2023/07/17 11:33:53;;;;;;;3.28;0.77;;;23.40;68.30;;;;;;5046115;28;20095;-82
2023/07/17 11:36:19;;;;;;;2.83;0.88;;;23.40;68.20;;;;;;5034242;28;20262;-82
2023/07/17 11:38:44;;;;;;;4.90;0.68;;;23.50;68.10;;;;;;5049938;28;20082;-82
2023/07/17 11:41:10;;;;;;;3.78;0.90;;;23.50;67.80;;;;;;5021704;28;20021;-77
2023/07/17 11:43:36;;;;;;;4.22;0.80;;;23.60;67.80;;;;;;5041304;28;20108;-77
2023/07/17 11:46:06;;;;;;;4.20;0.90;;;23.60;67.60;;;;;;5043754;28;20095;-77
2023/07/17 11:48:33;;;;;;;3.95;0.80;;;23.60;67.30;;;;;;5041934;28;20017;-77
2023/07/17 11:51:03;;;;;;;2.97;1.00;;;23.60;67.30;;;;;;5051725;28;20139;-77
2023/07/17 11:53:29;;;;;;;4.47;0.77;;;23.60;67.10;;;;;;5044253;28;20091;-77
2023/07/17 11:55:55;;;;;;;4.68;1.10;;;23.50;67.10;;;;;;5042484;28;20517;-78
2023/07/17 11:58:22;;;;;;;4.13;1.02;;;23.40;67.00;;;;;;5026678;28;20032;-78
2023/07/17 12:00:50;;;;;;;3.75;1.00;;;23.30;66.80;;;;;;5044110;28;20132;-78
2023/07/17 12:03:17;;;;;;;3.42;0.80;;;23.30;66.90;;;;;;5042455;28;20557;-78
2023/07/17 12:05:42;;;;;;;2.78;1.02;;;23.30;66.80;;;;;;5044149;28;20104;-83
2023/07/17 12:08:08;;;;;;;2.97;0.85;;;23.20;67.50;;;;;;5054147;28;20108;-78
2023/07/17 12:10:34;;;;;;;3.80;1.02;;;23.10;67.10;;;;;;5053737;28;20091;-83
2023/07/17 12:13:01;;;;;;;5.32;1.35;;;23.10;67.60;;;;;;5054825;28;20024;-84
2023/07/17 12:15:27;;;;;;;4.53;1.58;;;23.00;67.90;;;;;;5053389;28;20032;-83
2023/07/17 12:17:53;;;;;;;3.10;1.33;;;23.00;68.20;;;;;;5053349;28;20035;-84
2023/07/17 12:20:20;;;;;;;4.07;1.50;;;23.00;68.20;;;;;;5051870;28;20033;-84
2023/07/17 12:22:50;;;;;;;6.30;1.85;;;23.00;68.30;;;;;;5053033;28;20032;-84
2023/07/17 12:25:16;;;;;;;4.45;1.48;;;22.90;68.40;;;;;;5051399;28;20067;-78
2023/07/17 12:27:42;;;;;;;4.28;1.55;;;22.90;68.50;;;;;;5053543;28;20301;-84
2023/07/17 12:30:09;;;;;;;5.28;1.60;;;22.80;68.70;;;;;;5050966;28;20384;-78
2023/07/17 12:32:35;;;;;;;7.57;1.67;;;22.80;68.80;;;;;;5054530;28;20057;-84
2023/07/17 12:35:01;;;;;;;6.15;1.50;;;22.90;69.20;;;;;;5052137;28;20422;-78
2023/07/17 12:37:29;;;;;;;5.75;1.60;;;23.10;69.70;;;;;;5031338;28;20041;-85
2023/07/17 12:39:55;;;;;;;4.35;1.63;;;23.30;69.90;;;;;;5053142;28;20032;-83